Time;durP1;ratioP1;P1;durP2;ratioP2;P2;SDS_P1;SDS_P2;PMS_P1;PMS_P2;Temp;Humidity;BMP_temperature;BMP_pressure;BME280_temperature;BME280_humidity;BME280_pressure;Samples;Min_cycle;Max_cycle;Signal;HPM_P1;HPM_P2
2023/05/02 00:00:46;;;;;;;5.63;5.33;;;;;;;15.49;76.37;99953.69;5031821;28;20198;-72
2023/05/02 00:03:13;;;;;;;5.30;4.90;;;;;;;15.49;75.81;99961.72;5029918;28;20221;-73
2023/05/02 00:05:41;;;;;;;5.70;5.30;;;;;;;15.45;75.73;99960.53;5012137;28;20194;-73
2023/05/02 00:08:07;;;;;;;5.77;5.40;;;;;;;15.46;75.75;99956.84;5012199;28;20193;-73
2023/05/02 00:10:34;;;;;;;6.03;5.63;;;;;;;15.49;75.28;99960.94;5012447;28;20189;-73
2023/05/02 00:13:02;;;;;;;5.63;5.23;;;;;;;15.51;75.80;99970.38;5011999;28;20588;-74
2023/05/02 00:15:29;;;;;;;6.13;5.70;;;;;;;15.52;75.39;99965.88;5012427;28;20194;-73
2023/05/02 00:17:56;;;;;;;5.93;5.50;;;;;;;15.50;75.09;99973.28;5012511;28;20198;-73
2023/05/02 00:20:22;;;;;;;5.80;5.60;;;;;;;15.48;75.77;99970.00;5012377;28;20253;-74
2023/05/02 00:22:49;;;;;;;5.83;5.43;;;;;;;15.48;76.10;99970.81;5011850;28;20291;-73
2023/05/02 00:25:16;;;;;;;5.93;5.50;;;;;;;15.46;75.77;99967.53;5012295;28;20198;-73
2023/05/02 00:27:45;;;;;;;6.27;5.97;;;;;;;15.35;75.51;99970.91;5011897;28;20260;-73
2023/05/02 00:30:14;;;;;;;6.43;6.13;;;;;;;15.19;77.30;99966.00;5012333;28;20317;-74
2023/05/02 00:32:41;;;;;;;6.20;5.83;;;;;;;15.08;77.54;99966.66;5011901;28;20607;-74
2023/05/02 00:35:08;;;;;;;6.87;6.27;;;;;;;14.96;76.95;99978.28;5012497;28;20193;-74
2023/05/02 00:37:35;;;;;;;6.63;6.13;;;;;;;14.89;77.58;99978.31;5011743;28;20194;-74
2023/05/02 00:40:02;;;;;;;7.17;6.73;;;;;;;14.79;77.66;99977.91;5011874;28;20674;-74
2023/05/02 00:42:30;;;;;;;7.63;7.00;;;;;;;14.66;76.92;99974.47;5011843;28;20248;-74
2023/05/02 00:44:57;;;;;;;8.10;7.50;;;;;;;14.47;77.49;99980.69;5012189;28;20256;-74
2023/05/02 00:47:25;;;;;;;8.00;7.50;;;;;;;14.42;77.22;99983.97;5011830;28;20277;-74
2023/05/02 00:49:52;;;;;;;7.70;7.10;;;;;;;14.23;78.32;99987.53;5011760;28;20194;-74
2023/05/02 00:52:19;;;;;;;8.70;7.80;;;;;;;14.03;78.53;99965.31;5011688;28;20724;-73
2023/05/02 00:54:47;;;;;;;8.13;7.47;;;;;;;14.00;79.09;99983.56;5012012;28;20193;-73
2023/05/02 00:57:14;;;;;;;7.60;6.97;;;;;;;13.98;79.67;99978.47;5012035;28;20202;-74
2023/05/02 00:59:40;;;;;;;9.53;7.37;;;;;;;13.94;80.74;99985.25;5011522;28;20636;-73
2023/05/02 01:02:20;;;;;;;7.63;6.83;;;;;;;13.86;81.41;99981.94;5011998;28;20256;-73
2023/05/02 01:05:00;;;;;;;7.13;6.63;;;;;;;13.89;81.42;99987.69;5027388;28;20217;-73
2023/05/02 01:07:41;;;;;;;7.50;7.00;;;;;;;13.96;81.01;99993.03;5035011;28;20197;-73
2023/05/02 01:10:19;;;;;;;8.00;7.43;;;;;;;14.01;81.56;99991.38;5035070;28;20193;-74
2023/05/02 01:12:54;;;;;;;7.40;6.70;;;;;;;14.02;81.08;99995.72;5035320;28;20237;-74
2023/05/02 01:15:23;;;;;;;6.83;6.43;;;;;;;14.02;80.65;99981.53;5035282;28;20275;-74
2023/05/02 01:17:52;;;;;;;6.43;5.93;;;;;;;14.15;79.27;100000.22;5035294;28;20690;-74
2023/05/02 01:20:23;;;;;;;6.07;5.67;;;;;;;14.15;79.32;100001.06;5035143;28;20281;-74
2023/05/02 01:22:51;;;;;;;6.13;5.63;;;;;;;14.22;78.80;99999.22;5034738;28;20228;-74
2023/05/02 01:25:26;;;;;;;5.70;5.33;;;;;;;14.25;78.40;100006.03;5034715;28;20251;-74
2023/05/02 01:28:04;;;;;;;6.90;6.30;;;;;;;14.31;78.20;100003.34;5034660;28;20185;-74
2023/05/02 01:30:36;;;;;;;5.97;5.67;;;;;;;14.37;77.64;100002.50;5035088;28;20251;-73
2023/05/02 01:33:05;;;;;;;5.73;5.13;;;;;;;14.38;77.55;99998.78;5034928;28;20239;-73
2023/05/02 01:35:33;;;;;;;6.03;5.63;;;;;;;14.29;77.17;99993.88;5034897;28;20197;-73
2023/05/02 01:38:01;;;;;;;7.40;5.73;;;;;;;14.28;77.64;99998.41;5034721;28;20198;-73
2023/05/02 01:40:29;;;;;;;6.23;5.83;;;;;;;14.17;77.34;99992.84;5034743;28;20246;-74
2023/05/02 01:42:58;;;;;;;7.07;6.50;;;;;;;14.20;77.59;100000.41;5034208;28;20636;-73
2023/05/02 01:45:26;;;;;;;7.17;6.43;;;;;;;14.20;77.26;100003.94;5034752;28;20255;-73
2023/05/02 01:47:55;;;;;;;6.80;6.17;;;;;;;14.20;76.86;100005.75;5034295;28;20193;-75
2023/05/02 01:50:25;;;;;;;6.80;6.33;;;;;;;14.07;76.93;99998.59;5034769;28;20235;-73
2023/05/02 01:52:53;;;;;;;6.43;6.03;;;;;;;14.13;77.04;100011.13;5034728;28;20182;-72
2023/05/02 01:55:21;;;;;;;7.53;6.90;;;;;;;14.07;76.89;100001.25;5034130;28;20231;-73
2023/05/02 01:57:50;;;;;;;6.87;6.40;;;;;;;14.07;77.16;100000.44;5034067;28;20247;-73
2023/05/02 02:00:19;;;;;;;6.93;6.43;;;;;;;14.08;76.91;100008.25;5034438;28;20201;-73
2023/05/02 02:02:48;;;;;;;6.43;6.03;;;;;;;14.11;76.63;100009.69;5034477;28;20227;-73
2023/05/02 02:05:18;;;;;;;7.80;7.20;;;;;;;13.93;75.87;100007.63;5015303;28;20213;-73
2023/05/02 02:07:45;;;;;;;6.13;5.57;;;;;;;13.96;76.05;100014.41;5014416;28;20202;-74
2023/05/02 02:10:12;;;;;;;6.47;6.07;;;;;;;13.98;75.96;100012.34;5014218;28;20190;-74
2023/05/02 02:12:42;;;;;;;6.43;6.03;;;;;;;13.90;75.30;100026.75;5013942;28;20249;-74
2023/05/02 02:15:16;;;;;;;6.40;5.97;;;;;;;13.86;75.73;100012.16;5014682;28;20198;-74
2023/05/02 02:17:47;;;;;;;6.23;5.73;;;;;;;13.79;75.62;100013.16;5013355;28;20254;-73
2023/05/02 02:20:17;;;;;;;6.43;6.03;;;;;;;13.79;74.49;100016.66;5014388;28;20190;-74
2023/05/02 02:22:45;;;;;;;7.87;5.77;;;;;;;13.79;74.82;100019.31;5014109;28;20195;-74
2023/05/02 02:25:15;;;;;;;6.43;6.03;;;;;;;13.78;74.48;100017.69;5014083;28;20284;-74
2023/05/02 02:27:43;;;;;;;6.10;5.70;;;;;;;13.78;74.50;100012.34;5013938;28;20190;-74
2023/05/02 02:30:10;;;;;;;7.03;5.53;;;;;;;13.73;74.64;100014.78;5013814;28;20768;-74
2023/05/02 02:32:37;;;;;;;5.73;5.43;;;;;;;13.66;74.94;100011.31;5013869;28;20284;-75
2023/05/02 02:35:05;;;;;;;5.70;5.20;;;;;;;13.68;74.54;100022.59;5014068;28;20202;-75
2023/05/02 02:37:39;;;;;;;7.40;6.10;;;;;;;13.61;74.41;100016.44;5013545;28;20658;-75
2023/05/02 02:40:19;;;;;;;6.37;5.97;;;;;;;13.60;74.90;100012.09;5013673;28;20189;-74
2023/05/02 02:42:51;;;;;;;6.13;5.73;;;;;;;13.58;74.97;100014.16;5013790;28;20583;-74
2023/05/02 02:45:30;;;;;;;6.17;5.70;;;;;;;13.54;74.63;100014.75;5013780;28;20260;-73
2023/05/02 02:48:08;;;;;;;6.43;5.93;;;;;;;13.53;75.01;100013.13;5014005;28;20540;-72
2023/05/02 02:50:43;;;;;;;7.73;6.40;;;;;;;13.55;75.16;100021.72;5017336;28;20243;-73
2023/05/02 02:53:18;;;;;;;5.60;5.23;;;;;;;13.55;75.04;100027.91;5033385;28;20276;-74
2023/05/02 02:55:53;;;;;;;12.03;6.07;;;;;;;13.58;74.93;100029.34;5033378;28;20185;-73
2023/05/02 02:58:31;;;;;;;7.83;7.23;;;;;;;13.56;75.19;100029.53;5033229;28;20676;-73
2023/05/02 03:01:03;;;;;;;9.00;8.23;;;;;;;13.58;75.47;100027.50;5033396;28;20181;-74
2023/05/02 03:03:32;;;;;;;7.70;7.10;;;;;;;13.63;75.74;100035.72;5033107;28;20196;-74
2023/05/02 03:05:59;;;;;;;17.20;13.73;;;;;;;13.59;75.71;100039.81;5032857;28;20227;-74
2023/05/02 03:08:27;;;;;;;8.80;7.80;;;;;;;13.61;75.93;100032.44;5032875;28;20201;-74
2023/05/02 03:10:55;;;;;;;10.10;9.13;;;;;;;13.61;76.09;100037.78;5033110;28;20193;-73
2023/05/02 03:13:21;;;;;;;7.50;7.10;;;;;;;13.60;76.90;100038.00;5032919;28;20259;-73
2023/05/02 03:16:18;;;;;;;11.67;10.67;;;;;;;13.60;77.64;100033.44;5032992;28;20197;-73
2023/05/02 03:18:44;;;;;;;9.57;7.73;;;;;;;13.62;76.98;100044.75;5032808;28;20185;-73
2023/05/02 03:21:11;;;;;;;7.67;7.23;;;;;;;13.62;77.39;100039.44;5032477;28;20715;-73
2023/05/02 03:23:39;;;;;;;8.63;7.97;;;;;;;13.54;77.90;100031.59;5032675;28;20217;-73
2023/05/02 03:26:06;;;;;;;9.13;7.83;;;;;;;13.51;78.48;100040.00;5032420;28;20200;-73
2023/05/02 03:28:33;;;;;;;9.47;8.70;;;;;;;13.41;79.01;100049.41;5032070;28;20233;-69
2023/05/02 03:30:59;;;;;;;8.77;7.70;;;;;;;13.35;79.52;100040.38;5032630;28;20221;-69
2023/05/02 03:33:26;;;;;;;13.97;8.90;;;;;;;13.37;79.66;100051.69;5032625;28;20259;-69
2023/05/02 03:35:53;;;;;;;16.60;8.80;;;;;;;13.35;79.99;100053.72;5032775;28;20197;-69
2023/05/02 03:38:19;;;;;;;9.63;8.73;;;;;;;13.23;79.61;100059.84;5032198;28;20198;-69
2023/05/02 03:40:47;;;;;;;9.33;8.73;;;;;;;13.12;80.24;100058.56;5032482;28;20250;-69
2023/05/02 03:43:14;;;;;;;10.97;8.77;;;;;;;13.05;80.72;100057.69;5032114;28;20197;-70
2023/05/02 03:45:41;;;;;;;13.90;9.60;;;;;;;12.77;81.50;100040.06;5032351;28;20355;-70
2023/05/02 03:48:07;;;;;;;15.20;9.00;;;;;;;12.92;81.69;100062.94;5032408;28;20280;-70
2023/05/02 03:50:34;;;;;;;19.87;9.13;;;;;;;12.97;81.56;100065.00;5032183;28;20251;-69
2023/05/02 03:53:01;;;;;;;26.40;9.57;;;;;;;13.14;81.58;100075.16;5032062;28;20747;-68
2023/05/02 03:55:28;;;;;;;25.67;9.67;;;;;;;13.65;80.41;100075.56;5031731;28;20291;-68
2023/05/02 03:57:56;;;;;;;16.60;9.27;;;;;;;14.42;77.45;100090.09;5032134;28;20554;-67
2023/05/02 04:00:23;;;;;;;12.83;8.13;;;;;;;15.18;74.94;100090.16;5029003;28;20680;-67
2023/05/02 04:02:50;;;;;;;38.83;9.97;;;;;;;15.94;71.13;100102.59;5031717;28;20676;-68
2023/05/02 04:05:17;;;;;;;18.73;8.57;;;;;;;16.57;68.21;100099.91;5013041;28;20217;-68
2023/05/02 04:07:43;;;;;;;42.70;10.37;;;;;;;17.19;65.65;100113.13;5012644;28;20264;-67
2023/05/02 04:10:15;;;;;;;23.70;9.37;;;;;;;17.73;63.51;100110.41;5011140;28;20721;-67
2023/05/02 04:12:42;;;;;;;18.00;8.13;;;;;;;18.28;60.70;100117.25;5012461;28;20247;-66
2023/05/02 04:15:11;;;;;;;19.40;7.77;;;;;;;18.85;57.95;100132.69;5012461;28;20198;-66
2023/05/02 04:17:38;;;;;;;9.33;7.30;;;;;;;19.23;56.38;100130.31;5011986;28;20202;-68
2023/05/02 04:20:05;;;;;;;13.90;8.87;;;;;;;19.36;54.02;100133.63;5011901;28;20193;-68
2023/05/02 04:22:33;;;;;;;25.47;9.57;;;;;;;19.88;52.35;100127.13;5012323;28;20196;-68
2023/05/02 04:25:00;;;;;;;12.97;8.73;;;;;;;20.08;52.46;100126.69;5012013;28;20275;-69
2023/05/02 04:27:27;;;;;;;17.00;8.60;;;;;;;20.37;50.96;100136.41;5012551;28;20671;-69
2023/05/02 04:29:54;;;;;;;12.37;7.57;;;;;;;20.78;48.67;100127.91;5021855;28;20602;-68
2023/05/02 04:32:22;;;;;;;32.00;8.40;;;;;;;20.85;48.52;100131.28;5017543;28;20253;-68
2023/05/02 04:34:48;;;;;;;12.13;7.07;;;;;;;21.15;47.43;100133.66;5031964;28;20209;-67
2023/05/02 04:37:15;;;;;;;13.23;7.13;;;;;;;21.41;46.17;100136.47;5031356;28;20585;-68
2023/05/02 04:39:42;;;;;;;16.83;6.83;;;;;;;21.37;47.24;100120.97;5030364;28;20205;-70
2023/05/02 04:42:09;;;;;;;16.50;7.97;;;;;;;21.81;45.48;100134.25;5035088;28;20743;-69
2023/05/02 04:44:35;;;;;;;19.67;7.77;;;;;;;22.11;43.85;100123.78;5034776;28;20224;-67
2023/05/02 04:47:03;;;;;;;14.77;7.50;;;;;;;22.21;43.56;100113.03;5034858;28;20247;-69
2023/05/02 04:49:31;;;;;;;12.70;7.57;;;;;;;22.46;44.26;100115.19;5021290;28;20206;-69
2023/05/02 04:51:58;;;;;;;15.67;7.30;;;;;;;22.57;43.65;100115.03;5015349;28;20753;-68
2023/05/02 04:54:25;;;;;;;16.47;6.87;;;;;;;22.72;42.79;100126.00;5015675;28;20639;-69
2023/05/02 04:56:52;;;;;;;13.07;7.50;;;;;;;22.99;42.48;100126.72;5015507;28;20280;-69
2023/05/02 04:59:18;;;;;;;19.20;7.90;;;;;;;23.25;41.80;100128.53;5015755;28;20198;-69
2023/05/02 05:01:45;;;;;;;8.37;7.13;;;;;;;23.83;39.80;100130.97;5015538;28;20248;-69
2023/05/02 05:04:12;;;;;;;8.50;7.07;;;;;;;23.85;39.13;100134.22;5015347;28;20217;-69
2023/05/02 05:06:40;;;;;;;15.70;6.83;;;;;;;24.15;38.62;100131.63;5015623;28;20650;-69
2023/05/02 05:09:07;;;;;;;7.53;5.00;;;;;;;25.36;35.11;100131.63;5015450;28;20272;-69
2023/05/02 05:11:33;;;;;;;8.60;5.73;;;;;;;26.29;32.99;100126.00;5014965;28;20193;-70
2023/05/02 05:14:02;;;;;;;7.23;5.60;;;;;;;25.95;33.16;100113.41;5015261;28;20204;-70
2023/05/02 05:16:29;;;;;;;7.10;5.67;;;;;;;27.35;31.38;100128.63;5015233;28;20194;-69
2023/05/02 05:18:56;;;;;;;6.07;5.47;;;;;;;28.13;30.18;100132.56;5015042;28;20201;-69
2023/05/02 05:21:23;;;;;;;13.33;6.07;;;;;;;28.53;28.85;100134.69;5015100;28;20200;-70
2023/05/02 05:23:51;;;;;;;9.27;6.00;;;;;;;27.88;29.25;100132.91;5014985;28;20198;-69
2023/05/02 05:26:18;;;;;;;64.77;10.03;;;;;;;27.85;29.46;100133.50;5014857;28;20745;-69
2023/05/02 05:28:45;;;;;;;7.37;5.90;;;;;;;27.53;30.05;100136.06;5014793;28;20641;-69
2023/05/02 05:31:14;;;;;;;6.03;5.53;;;;;;;26.79;31.43;100120.16;5015079;28;20275;-69
2023/05/02 05:33:41;;;;;;;13.67;6.10;;;;;;;26.88;31.00;100134.81;5015050;28;20241;-69
2023/05/02 05:36:08;;;;;;;6.77;6.03;;;;;;;26.87;30.44;100133.16;5015189;28;20198;-69
2023/05/02 05:38:36;;;;;;;12.27;5.60;;;;;;;26.85;30.97;100129.09;5014632;28;20285;-69
2023/05/02 05:41:06;;;;;;;12.27;6.30;;;;;;;26.62;31.53;100136.13;5014753;28;20198;-69
2023/05/02 05:43:33;;;;;;;8.23;5.90;;;;;;;26.40;31.78;100140.34;5014955;28;20190;-69
2023/05/02 05:46:00;;;;;;;7.73;5.57;;;;;;;26.68;31.10;100128.72;5014432;28;20272;-69
2023/05/02 05:48:27;;;;;;;6.20;5.13;;;;;;;28.09;29.38;100145.19;5014383;28;20221;-69
2023/05/02 05:50:53;;;;;;;5.90;5.40;;;;;;;28.70;28.58;100151.38;5014598;28;20194;-69
2023/05/02 05:53:20;;;;;;;7.63;6.20;;;;;;;28.34;28.41;100153.03;5014721;28;20228;-69
2023/05/02 05:55:47;;;;;;;7.60;5.30;;;;;;;27.70;29.23;100148.13;5014543;28;20202;-69
2023/05/02 05:58:15;;;;;;;22.70;6.57;;;;;;;27.74;29.80;100151.09;5014279;28;20666;-69
2023/05/02 06:00:42;;;;;;;7.90;6.00;;;;;;;27.95;29.20;100149.75;5014455;28;20285;-69
2023/05/02 06:03:08;;;;;;;10.07;6.50;;;;;;;27.68;29.83;100155.00;5016127;28;20220;-69
2023/05/02 06:05:35;;;;;;;6.03;5.50;;;;;;;27.40;29.98;100144.94;5034192;28;20221;-69
2023/05/02 06:08:02;;;;;;;6.13;4.70;;;;;;;27.27;30.49;100151.09;5033957;28;20194;-69
2023/05/02 06:10:30;;;;;;;11.57;5.70;;;;;;;26.67;31.62;100148.91;5034175;28;20193;-69
2023/05/02 06:12:57;;;;;;;52.03;9.23;;;;;;;26.42;32.01;100151.78;5034188;28;20193;-69
2023/05/02 06:15:25;;;;;;;11.80;6.40;;;;;;;26.55;31.39;100145.69;5034054;28;20205;-69
2023/05/02 06:17:52;;;;;;;9.83;6.87;;;;;;;25.92;32.81;100152.88;5033763;28;20232;-68
2023/05/02 06:20:19;;;;;;;11.70;6.17;;;;;;;25.80;33.91;100143.44;5033555;28;20621;-68
2023/05/02 06:22:46;;;;;;;8.80;6.20;;;;;;;26.21;33.35;100151.09;5033568;28;20200;-69
2023/05/02 06:25:12;;;;;;;9.73;6.20;;;;;;;26.66;32.96;100142.63;5033247;28;20704;-70
2023/05/02 06:27:39;;;;;;;15.60;6.67;;;;;;;26.86;32.22;100144.38;5033986;28;20662;-73
2023/05/02 06:30:07;;;;;;;9.60;7.50;;;;;;;26.57;32.75;100146.22;5034135;28;20229;-67
2023/05/02 06:32:35;;;;;;;19.60;6.80;;;;;;;26.29;33.81;100128.72;5033650;28;20194;-65
2023/05/02 06:35:02;;;;;;;13.87;6.77;;;;;;;26.41;35.23;100136.56;5033106;28;20262;-66
2023/05/02 06:37:33;;;;;;;10.80;6.40;;;;;;;26.72;34.24;100140.69;5032829;28;20690;-65
2023/05/02 06:40:00;;;;;;;7.27;4.83;;;;;;;27.21;34.00;100133.16;5032823;28;20194;-66
2023/05/02 06:42:27;;;;;;;10.43;6.17;;;;;;;27.41;33.27;100138.38;5032778;28;20201;-65
2023/05/02 06:44:54;;;;;;;11.17;4.83;;;;;;;27.77;33.60;100134.13;5032316;28;20221;-70
2023/05/02 06:47:21;;;;;;;6.17;4.97;;;;;;;27.83;31.47;100135.69;5031698;28;20240;-69
2023/05/02 06:49:49;;;;;;;28.93;7.17;;;;;;;27.34;33.22;100132.44;5032477;28;20657;-68
2023/05/02 06:52:15;;;;;;;8.33;6.60;;;;;;;27.40;32.39;100139.50;5030426;28;20201;-67
2023/05/02 06:54:42;;;;;;;11.00;4.67;;;;;;;27.39;32.43;100124.19;5029802;28;20256;-71
2023/05/02 06:57:09;;;;;;;10.33;5.20;;;;;;;27.44;33.00;100133.16;5019678;28;20621;-75
2023/05/02 06:59:36;;;;;;;12.10;6.73;;;;;;;27.33;32.55;100125.38;5014264;28;20202;-69
2023/05/02 07:02:03;;;;;;;27.33;8.67;;;;;;;27.70;32.32;100109.91;5025624;28;20273;-76
2023/05/02 07:04:30;;;;;;;7.70;5.97;;;;;;;27.69;32.73;100132.03;5020966;28;20669;-71
2023/05/02 07:06:58;;;;;;;6.70;5.03;;;;;;;27.48;31.62;100117.81;5025566;28;20202;-70
2023/05/02 07:09:25;;;;;;;6.70;4.70;;;;;;;27.89;32.01;100124.41;5030801;28;20630;-71
2023/05/02 07:11:51;;;;;;;22.93;5.07;;;;;;;28.43;31.39;100130.19;5031077;28;20193;-70
2023/05/02 07:14:18;;;;;;;4.77;4.27;;;;;;;28.63;30.47;100140.81;5012106;28;20190;-71
2023/05/02 07:16:45;;;;;;;5.63;5.10;;;;;;;28.91;28.97;100147.19;5023806;28;20197;-69
2023/05/02 07:19:11;;;;;;;4.50;4.10;;;;;;;28.78;28.97;100142.47;5030987;28;20193;-71
2023/05/02 07:21:38;;;;;;;3.97;3.67;;;;;;;28.92;28.91;100126.94;5030274;28;20326;-69
2023/05/02 07:24:06;;;;;;;4.30;4.00;;;;;;;28.92;27.73;100135.94;5031042;28;20271;-74
2023/05/02 07:26:33;;;;;;;3.87;3.57;;;;;;;29.08;27.73;100129.09;5030819;28;20704;-69
2023/05/02 07:29:00;;;;;;;4.47;3.20;;;;;;;29.25;27.30;100136.75;5014008;28;20303;-68
2023/05/02 07:31:26;;;;;;;3.23;3.03;;;;;;;29.55;26.79;100136.13;5018736;28;20193;-69
2023/05/02 07:33:53;;;;;;;4.37;3.13;;;;;;;29.74;26.79;100114.97;5031171;28;20747;-68
2023/05/02 07:36:20;;;;;;;9.43;3.07;;;;;;;29.90;26.25;100116.25;5030631;28;20267;-68
2023/05/02 07:38:46;;;;;;;3.77;2.63;;;;;;;29.98;24.96;100118.28;5031788;28;20185;-67
2023/05/02 07:41:15;;;;;;;5.63;2.70;;;;;;;30.15;25.05;100129.41;5030935;28;20248;-66
2023/05/02 07:43:41;;;;;;;6.80;2.90;;;;;;;30.25;24.43;100129.16;5031329;28;20630;-67
2023/05/02 07:46:08;;;;;;;3.00;2.50;;;;;;;29.94;24.19;100127.41;5031655;28;20221;-68
2023/05/02 07:48:35;;;;;;;2.93;2.73;;;;;;;29.78;24.26;100126.94;5031602;28;20190;-67
2023/05/02 07:51:08;;;;;;;3.33;2.43;;;;;;;29.31;25.43;100123.78;5030477;28;20632;-67
2023/05/02 07:53:35;;;;;;;2.83;2.10;;;;;;;29.48;24.75;100113.81;5012533;28;20244;-68
2023/05/02 07:56:03;;;;;;;2.70;2.50;;;;;;;29.70;24.76;100111.22;5011592;28;20262;-66
2023/05/02 07:58:31;;;;;;;3.17;2.60;;;;;;;29.75;24.97;100105.63;5010964;28;20241;-65
2023/05/02 08:00:58;;;;;;;3.10;2.30;;;;;;;29.57;25.30;100114.78;5012102;28;20677;-70
2023/05/02 08:03:25;;;;;;;3.07;2.23;;;;;;;29.72;25.28;100108.97;5027124;28;20256;-69
2023/05/02 08:05:52;;;;;;;2.40;2.20;;;;;;;29.59;25.43;100112.53;5011557;28;20256;-67
2023/05/02 08:08:19;;;;;;;6.33;2.90;;;;;;;29.13;25.15;100109.88;5026108;28;20251;-66
2023/05/02 08:10:45;;;;;;;4.53;2.50;;;;;;;29.38;25.39;100103.09;5031601;28;20198;-66
2023/05/02 08:13:13;;;;;;;2.90;2.40;;;;;;;29.50;25.05;100099.81;5031310;28;20259;-69
2023/05/02 08:15:41;;;;;;;4.00;2.30;;;;;;;29.48;25.11;100091.91;5030020;28;20213;-67
2023/05/02 08:18:08;;;;;;;2.33;2.23;;;;;;;28.94;23.95;100103.63;5029981;28;20279;-67
2023/05/02 08:20:35;;;;;;;2.20;2.10;;;;;;;28.42;24.27;100097.72;5031033;28;20619;-67
2023/05/02 08:23:01;;;;;;;5.97;2.20;;;;;;;28.54;23.18;100098.06;5030662;28;20189;-72
2023/05/02 08:25:29;;;;;;;3.63;2.20;;;;;;;28.27;23.21;100092.44;5030220;28;20225;-69
2023/05/02 08:27:56;;;;;;;3.73;2.03;;;;;;;28.13;23.51;100078.72;5031225;28;20258;-68
2023/05/02 08:30:23;;;;;;;1.93;1.83;;;;;;;27.65;23.76;100090.03;5024330;28;20209;-68
2023/05/02 08:32:51;;;;;;;3.47;1.90;;;;;;;27.60;23.85;100081.94;5010676;28;20190;-68
2023/05/02 08:35:17;;;;;;;3.10;1.57;;;;;;;27.48;23.83;100076.88;5010851;28;20194;-69
2023/05/02 08:37:44;;;;;;;6.73;1.90;;;;;;;26.77;24.05;100034.28;5019557;28;20197;-69
2023/05/02 08:40:12;;;;;;;2.13;1.93;;;;;;;26.86;24.04;100078.94;5030202;28;20251;-68
2023/05/02 08:42:42;;;;;;;4.40;1.97;;;;;;;26.66;24.24;100076.41;5030254;28;20193;-70
2023/05/02 08:45:11;;;;;;;2.07;1.97;;;;;;;26.85;24.59;100086.31;5030545;28;20197;-68
2023/05/02 08:47:38;;;;;;;4.50;2.07;;;;;;;26.78;24.38;100063.22;5030019;28;20197;-69
2023/05/02 08:50:09;;;;;;;2.63;2.00;;;;;;;26.76;23.77;100071.69;5031155;28;20205;-69
2023/05/02 08:52:36;;;;;;;4.27;1.63;;;;;;;26.68;24.59;100063.28;5030102;28;20273;-68
2023/05/02 08:55:04;;;;;;;2.07;1.57;;;;;;;26.78;24.36;100065.94;5029720;28;20201;-67
2023/05/02 08:57:30;;;;;;;1.90;1.80;;;;;;;26.52;24.33;100059.03;5025930;28;20202;-67
2023/05/02 08:59:57;;;;;;;3.30;1.83;;;;;;;26.58;24.23;100052.50;5010560;28;20256;-69
2023/05/02 09:02:38;;;;;;;1.70;1.60;;;;;;;26.48;24.45;100053.38;5018320;28;20261;-68
2023/05/02 09:05:11;;;;;;;2.97;2.00;;;;;;;26.67;24.47;100048.88;5012241;28;20190;-68
2023/05/02 09:07:46;;;;;;;1.80;1.70;;;;;;;26.52;24.26;100059.03;5019617;28;20190;-68
2023/05/02 09:10:13;;;;;;;2.03;1.80;;;;;;;26.70;24.27;100050.22;5030576;28;20700;-66
2023/05/02 09:12:39;;;;;;;5.83;2.23;;;;;;;25.99;24.23;100054.56;5030356;28;20194;-68
2023/05/02 09:15:10;;;;;;;3.40;1.73;;;;;;;25.82;24.21;100037.78;5030120;28;20251;-65
2023/05/02 09:17:42;;;;;;;4.60;1.63;;;;;;;25.04;24.91;100007.66;5019320;28;20198;-67
2023/05/02 09:20:12;;;;;;;4.80;2.10;;;;;;;25.36;25.73;100020.09;5010592;28;20226;-65
2023/05/02 09:22:39;;;;;;;2.47;1.70;;;;;;;25.42;24.53;100033.38;5010040;28;20198;-68
2023/05/02 09:25:07;;;;;;;1.80;1.70;;;;;;;25.41;24.17;100039.09;5010282;28;20245;-67
2023/05/02 09:27:50;;;;;;;2.00;1.60;;;;;;;25.15;24.42;100022.03;5031953;28;20275;-67
2023/05/02 09:30:22;;;;;;;3.83;1.60;;;;;;;25.37;23.80;100019.81;5033514;28;20239;-68
2023/05/02 09:32:51;;;;;;;3.97;1.80;;;;;;;25.10;23.57;100032.94;5026240;28;20204;-67
2023/05/02 09:35:22;;;;;;;3.90;1.70;;;;;;;24.89;23.95;100005.00;5021100;28;20263;-74
2023/05/02 09:37:53;;;;;;;4.23;1.73;;;;;;;25.12;24.45;100013.63;5022475;28;20284;-67
2023/05/02 09:40:20;;;;;;;1.70;1.60;;;;;;;25.15;24.06;99999.47;5029752;28;20193;-74
2023/05/02 09:42:47;;;;;;;2.63;2.13;;;;;;;25.20;24.69;100007.59;5029573;28;20200;-70
2023/05/02 09:45:21;;;;;;;3.93;2.13;;;;;;;25.31;24.21;100006.50;5029882;28;20205;-70
2023/05/02 09:47:48;;;;;;;1.77;1.40;;;;;;;25.32;23.85;100005.41;5030813;28;20228;-67
2023/05/02 09:50:35;;;;;;;4.33;2.30;;;;;;;24.96;24.29;100002.78;5029792;28;20258;-69
2023/05/02 09:53:02;;;;;;;4.10;2.03;;;;;;;24.74;24.15;100015.09;5023606;28;20200;-68
2023/05/02 09:55:29;;;;;;;2.80;1.20;;;;;;;24.84;24.07;100004.22;5029269;28;20205;-67
2023/05/02 09:57:56;;;;;;;2.93;1.97;;;;;;;24.77;24.93;100003.69;5029938;28;20209;-67
2023/05/02 10:00:23;;;;;;;4.27;1.83;;;;;;;24.79;24.17;99998.78;5029685;28;20723;-71
2023/05/02 10:02:51;;;;;;;2.10;1.50;;;;;;;24.98;23.49;99995.19;5029995;28;20193;-69
2023/05/02 10:05:20;;;;;;;6.30;1.73;;;;;;;24.70;24.21;99993.09;5021660;28;20565;-69
2023/05/02 10:07:48;;;;;;;2.90;1.77;;;;;;;24.18;25.16;99972.78;5028991;28;20209;-70
2023/05/02 10:10:18;;;;;;;5.73;1.63;;;;;;;23.94;25.19;99985.28;5029048;28;20195;-69
2023/05/02 10:12:47;;;;;;;1.63;1.47;;;;;;;23.95;25.58;99974.16;5029996;28;20206;-68
2023/05/02 10:15:16;;;;;;;10.37;2.63;;;;;;;24.29;25.44;99975.22;5029038;28;20741;-69
2023/05/02 10:17:49;;;;;;;3.27;1.80;;;;;;;24.44;25.47;99967.06;5029889;28;20207;-68
2023/05/02 10:20:23;;;;;;;5.73;1.80;;;;;;;24.33;25.77;99951.03;5029650;28;20204;-69
2023/05/02 10:22:53;;;;;;;4.60;1.60;;;;;;;24.34;24.56;99983.34;5029519;28;20209;-68
2023/05/02 10:25:20;;;;;;;5.27;2.20;;;;;;;24.57;24.25;99963.75;5021511;28;20758;-68
2023/05/02 10:27:47;;;;;;;2.63;1.83;;;;;;;24.73;24.18;99962.66;5029846;28;20217;-68
2023/05/02 10:30:15;;;;;;;3.07;1.50;;;;;;;24.86;24.05;99966.69;5029858;28;20224;-69
2023/05/02 10:32:45;;;;;;;10.40;2.37;;;;;;;24.92;25.13;99969.09;5029242;28;20200;-69
2023/05/02 10:35:13;;;;;;;4.00;1.67;;;;;;;24.76;24.83;99964.84;5029214;28;20189;-72
2023/05/02 10:37:41;;;;;;;5.17;1.83;;;;;;;24.82;25.37;99966.44;5027929;28;20213;-74
2023/05/02 10:40:12;;;;;;;2.10;1.40;;;;;;;24.83;24.47;99964.53;5027939;28;20200;-70
2023/05/02 10:42:43;;;;;;;4.63;1.80;;;;;;;24.91;24.77;99966.69;5027470;28;20822;-67
2023/05/02 10:45:12;;;;;;;6.50;1.90;;;;;;;25.08;24.90;99964.44;5016728;28;20201;-67
2023/05/02 10:47:38;;;;;;;7.53;1.70;;;;;;;24.78;25.29;99997.97;5020877;28;20260;-66
2023/05/02 10:50:07;;;;;;;1.93;1.50;;;;;;;24.33;25.76;99948.31;5025455;28;20200;-67
2023/05/02 10:52:36;;;;;;;4.87;1.33;;;;;;;24.47;25.22;99971.13;5025216;28;20228;-67
2023/05/02 10:55:22;;;;;;;1.47;1.37;;;;;;;24.45;24.79;99979.53;5027915;28;20204;-68
2023/05/02 10:58:24;;;;;;;4.60;1.47;;;;;;;24.61;24.93;99956.72;5020713;28;20992;-67
2023/05/02 11:00:51;;;;;;;1.60;1.50;;;;;;;24.57;24.58;99947.47;4996234;28;20193;-69
2023/05/02 11:03:51;;;;;;;3.07;1.43;;;;;;;24.52;24.97;99950.19;4990013;28;20201;-72
2023/05/02 11:06:17;;;;;;;1.80;1.67;;;;;;;24.34;24.54;99950.75;5008724;28;20224;-68
2023/05/02 11:08:45;;;;;;;4.10;1.63;;;;;;;24.39;24.87;99933.66;5021739;28;20205;-70
2023/05/02 11:11:41;;;;;;;2.43;1.50;;;;;;;24.40;24.96;99938.81;5021275;28;20659;-68
2023/05/02 11:14:08;;;;;;;2.93;1.63;;;;;;;24.47;25.05;99938.53;5018346;28;20287;-67
2023/05/02 11:17:08;;;;;;;2.03;1.07;;;;;;;24.52;24.64;99942.06;5028301;28;20200;-66
2023/05/02 11:20:26;;;;;;;4.60;2.00;;;;;;;24.70;24.58;99933.31;5015932;28;20634;-66
2023/05/02 11:22:55;;;;;;;1.50;1.40;;;;;;;24.28;25.27;99932.03;5026093;28;20209;-68
2023/05/02 11:25:38;;;;;;;2.90;1.40;;;;;;;24.28;24.95;99924.72;5017137;28;20263;-70
2023/05/02 11:28:28;;;;;;;2.03;1.93;;;;;;;24.22;24.92;99944.81;5019961;28;20230;-71
2023/05/02 11:30:55;;;;;;;4.77;1.80;;;;;;;24.18;25.28;99930.16;5019821;28;20208;-68
2023/05/02 11:33:21;;;;;;;4.13;1.70;;;;;;;24.30;24.87;99929.88;5026381;28;20804;-68